createdAt,value
2019-02-24T00:02:29.128Z,11.20
2019-02-24T00:05:32.666Z,11.27
2019-02-24T00:08:36.201Z,10.80
2019-02-24T00:11:39.788Z,9.93
2019-02-24T00:14:43.563Z,11.07
2019-02-24T00:17:47.137Z,10.13
2019-02-24T00:20:50.697Z,10.90
2019-02-24T00:23:54.236Z,9.90
2019-02-24T00:26:58.187Z,9.90
2019-02-24T00:30:01.973Z,9.73
2019-02-24T00:33:05.842Z,9.70
2019-02-24T00:36:09.459Z,9.87
2019-02-24T00:39:12.989Z,9.20
2019-02-24T00:42:16.531Z,9.60
2019-02-24T00:45:20.076Z,9.57
2019-02-24T00:48:23.912Z,9.43
2019-02-24T00:51:27.480Z,9.70
2019-02-24T00:54:31.315Z,9.90
2019-02-24T00:57:34.874Z,8.63
2019-02-24T01:00:38.663Z,8.50
2019-02-24T01:03:42.473Z,8.67
2019-02-24T01:06:46.604Z,8.60
2019-02-24T01:09:50.471Z,8.60
2019-02-24T01:12:54.321Z,8.47
2019-02-24T01:15:57.874Z,8.13
2019-02-24T01:19:01.720Z,8.63
2019-02-24T01:22:05.356Z,8.70
2019-02-24T01:25:09.338Z,8.50
2019-02-24T01:28:12.882Z,7.73
2019-02-24T01:31:16.405Z,8.43
2019-02-24T01:34:19.955Z,8.33
2019-02-24T01:37:23.867Z,7.90
2019-02-24T01:40:27.680Z,8.53
2019-02-24T01:43:31.477Z,7.60
2019-02-24T01:46:35.555Z,7.70
2019-02-24T01:49:39.106Z,8.30
2019-02-24T01:52:43.261Z,7.47
2019-02-24T01:55:47.102Z,7.47
2019-02-24T01:58:51.242Z,6.87
2019-02-24T02:01:54.780Z,7.30
2019-02-24T02:04:58.967Z,7.43
2019-02-24T02:08:02.771Z,7.53
2019-02-24T02:11:06.846Z,7.30
2019-02-24T02:14:10.674Z,7.17
2019-02-24T02:17:14.219Z,7.33
2019-02-24T02:20:18.007Z,7.13
2019-02-24T02:23:21.664Z,7.20
2019-02-24T02:26:25.210Z,6.77
2019-02-24T02:29:28.785Z,7.37
2019-02-24T02:32:32.317Z,7.03
2019-02-24T02:35:35.864Z,6.90
2019-02-24T02:38:39.458Z,7.50
2019-02-24T02:41:43.352Z,7.23
2019-02-24T02:44:47.227Z,6.90
2019-02-24T02:47:50.783Z,5.70
2019-02-24T02:50:54.672Z,6.20
2019-02-24T02:53:58.195Z,6.47
2019-02-24T02:57:01.727Z,6.20
2019-02-24T03:00:12.480Z,6.20
2019-02-24T03:03:16.010Z,6.50
2019-02-24T03:06:31.923Z,5.63
2019-02-24T03:09:35.458Z,6.03
2019-02-24T03:12:39.075Z,6.23
2019-02-24T03:15:42.926Z,5.87
2019-02-24T03:18:46.452Z,5.47
2019-02-24T03:21:50.262Z,6.00
2019-02-24T03:24:54.051Z,6.00
2019-02-24T03:27:57.614Z,5.97
2019-02-24T03:31:01.181Z,5.93
2019-02-24T03:34:04.953Z,5.37
2019-02-24T03:37:08.494Z,6.23
2019-02-24T03:40:12.049Z,5.97
2019-02-24T03:43:15.642Z,5.90
2019-02-24T03:46:19.182Z,5.93
2019-02-24T03:49:22.801Z,6.00
2019-02-24T03:52:26.352Z,5.70
2019-02-24T03:55:29.961Z,5.53
2019-02-24T03:58:33.508Z,5.77
2019-02-24T04:01:37.454Z,5.40
2019-02-24T04:04:41.004Z,5.40
2019-02-24T04:07:44.837Z,5.30
2019-02-24T04:10:48.377Z,6.73
2019-02-24T04:13:52.896Z,6.00
2019-02-24T04:16:56.404Z,5.40
2019-02-24T04:19:59.939Z,5.30
2019-02-24T04:23:03.479Z,5.17
2019-02-24T04:26:07.216Z,5.67
2019-02-24T04:29:10.765Z,5.07
2019-02-24T04:32:14.595Z,5.03
2019-02-24T04:35:18.124Z,5.30
2019-02-24T04:38:22.013Z,4.97
2019-02-24T04:41:25.779Z,5.03
2019-02-24T04:44:29.357Z,4.90
2019-02-24T04:47:32.954Z,5.40
2019-02-24T04:50:36.823Z,5.13
2019-02-24T04:53:40.379Z,5.30
2019-02-24T04:56:43.917Z,5.27
2019-02-24T04:59:47.463Z,4.77
2019-02-24T05:02:51.330Z,5.03
2019-02-24T05:05:55.129Z,5.17
2019-02-24T05:08:58.995Z,5.30
2019-02-24T05:12:02.535Z,4.70
2019-02-24T05:15:06.173Z,5.07
2019-02-24T05:18:10.094Z,5.07
2019-02-24T05:21:13.727Z,4.23
2019-02-24T05:24:17.581Z,5.07
2019-02-24T05:27:21.417Z,5.03
2019-02-24T05:30:25.647Z,5.60
2019-02-24T05:33:29.953Z,4.90
2019-02-24T05:36:33.505Z,4.73
2019-02-24T05:39:37.036Z,4.73
2019-02-24T05:42:42.514Z,5.07
2019-02-24T05:45:46.132Z,4.47
2019-02-24T05:48:50.101Z,4.63
2019-02-24T05:51:53.899Z,5.10
2019-02-24T05:54:57.481Z,4.70
2019-02-24T05:58:01.276Z,4.50
2019-02-24T06:01:04.825Z,4.90
2019-02-24T06:04:08.629Z,4.30
2019-02-24T06:07:12.439Z,4.80
2019-02-24T06:10:15.983Z,4.50
2019-02-24T06:13:19.509Z,4.37
2019-02-24T06:16:23.384Z,4.13
2019-02-24T06:19:27.208Z,4.00
2019-02-24T06:22:30.974Z,4.30
2019-02-24T06:25:34.504Z,4.10
2019-02-24T06:28:38.038Z,4.80
2019-02-24T06:31:41.907Z,4.40
2019-02-24T06:34:45.457Z,4.60
2019-02-24T06:37:48.990Z,4.70
2019-02-24T06:40:52.546Z,4.40
2019-02-24T06:43:56.333Z,4.43
2019-02-24T06:46:59.967Z,4.50
2019-02-24T06:50:03.633Z,4.17
2019-02-24T06:53:07.453Z,4.47
2019-02-24T06:56:11.479Z,4.30
2019-02-24T06:59:15.011Z,4.47
2019-02-24T07:02:18.876Z,4.40
2019-02-24T07:05:22.692Z,4.30
2019-02-24T07:08:26.220Z,3.97
2019-02-24T07:11:30.100Z,4.57
2019-02-24T07:14:33.652Z,4.47
2019-02-24T07:17:37.186Z,4.13
2019-02-24T07:20:41.023Z,4.47
2019-02-24T07:23:44.556Z,4.13
2019-02-24T07:26:48.110Z,4.27
2019-02-24T07:29:51.643Z,4.43
2019-02-24T07:32:55.181Z,4.60
2019-02-24T07:35:58.733Z,4.37
2019-02-24T07:39:03.091Z,4.37
2019-02-24T07:42:06.665Z,4.60
2019-02-24T07:45:10.265Z,4.53
2019-02-24T07:48:14.253Z,4.37
2019-02-24T07:51:17.808Z,4.53
2019-02-24T07:54:21.415Z,10.37
2019-02-24T07:57:25.017Z,19.03
2019-02-24T08:00:32.365Z,15.23
2019-02-24T08:03:34.284Z,14.40
2019-02-24T08:06:38.135Z,14.10
2019-02-24T08:09:42.063Z,12.70
2019-02-24T08:12:45.960Z,10.27
2019-02-24T08:15:49.505Z,9.43
2019-02-24T08:18:53.389Z,8.20
2019-02-24T08:21:57.503Z,7.37
2019-02-24T08:25:01.184Z,7.00
2019-02-24T08:28:05.435Z,7.37
2019-02-24T08:31:09.347Z,6.57
2019-02-24T08:34:12.904Z,6.70
2019-02-24T08:37:16.465Z,8.13
2019-02-24T08:40:20.106Z,8.07
2019-02-24T08:43:23.774Z,6.47
2019-02-24T08:46:27.768Z,39.93
2019-02-24T08:49:31.786Z,372.80
2019-02-24T08:52:35.635Z,538.55
2019-02-24T08:55:39.580Z,243.73
2019-02-24T08:58:43.141Z,230.37
2019-02-24T09:01:46.931Z,219.50
2019-02-24T09:04:50.475Z,194.97
2019-02-24T09:07:54.145Z,190.68
2019-02-24T09:11:01.572Z,183.05
2019-02-24T09:14:05.029Z,179.68
2019-02-24T09:17:08.700Z,170.75
2019-02-24T09:20:12.334Z,168.62
2019-02-24T09:23:16.662Z,165.32
2019-02-24T09:26:20.294Z,59.13
2019-02-24T09:29:23.847Z,43.92
2019-02-24T09:32:27.693Z,28.35
2019-02-24T09:35:31.972Z,23.67
2019-02-24T09:38:39.610Z,54.65
2019-02-24T09:41:43.175Z,83.85
2019-02-24T09:44:46.732Z,79.10
2019-02-24T09:47:50.614Z,74.07
2019-02-24T09:50:54.171Z,72.35
2019-02-24T09:53:57.710Z,67.42
2019-02-24T09:57:01.562Z,66.82
2019-02-24T10:00:07.475Z,64.03
2019-02-24T10:03:11.071Z,62.23
2019-02-24T10:06:15.106Z,59.95
2019-02-24T10:09:18.653Z,56.45
2019-02-24T10:12:22.483Z,54.60
2019-02-24T10:15:26.330Z,54.27
2019-02-24T10:18:29.946Z,51.33
2019-02-24T10:21:33.977Z,48.33
2019-02-24T10:24:37.526Z,45.78
2019-02-24T10:27:41.069Z,45.33
2019-02-24T10:30:44.667Z,43.57
2019-02-24T10:33:48.456Z,42.00
2019-02-24T10:36:52.304Z,42.03
2019-02-24T10:39:56.198Z,41.43
2019-02-24T10:43:00.063Z,39.13
2019-02-24T10:46:03.619Z,37.37
2019-02-24T10:49:07.189Z,37.40
2019-02-24T10:52:11.290Z,36.97
2019-02-24T10:55:14.834Z,36.00
2019-02-24T10:58:18.370Z,34.00
2019-02-24T11:01:29.293Z,33.13
2019-02-24T11:04:27.474Z,32.10
2019-02-24T11:07:31.029Z,30.47
2019-02-24T11:10:34.580Z,30.10
2019-02-24T11:13:38.238Z,29.43
2019-02-24T11:16:41.784Z,29.00
2019-02-24T11:19:45.823Z,27.23
2019-02-24T11:22:49.378Z,26.13
2019-02-24T11:25:52.926Z,27.47
2019-02-24T11:28:56.467Z,24.93
2019-02-24T11:32:00.028Z,23.90
2019-02-24T11:35:03.655Z,23.50
2019-02-24T11:38:07.208Z,23.37
2019-02-24T11:41:11.265Z,21.37
2019-02-24T11:44:15.118Z,21.37
2019-02-24T11:47:18.668Z,19.47
2019-02-24T11:50:22.683Z,20.60
2019-02-24T11:53:26.230Z,19.17
2019-02-24T11:56:29.808Z,18.67
2019-02-24T11:59:33.597Z,18.20
2019-02-24T12:02:37.417Z,17.83
2019-02-24T12:05:41.025Z,17.10
2019-02-24T12:08:44.571Z,17.10
2019-02-24T12:11:48.142Z,16.30
2019-02-24T12:14:52.080Z,15.20
2019-02-24T12:17:56.000Z,15.43
2019-02-24T12:20:59.946Z,15.00
2019-02-24T12:24:03.519Z,15.17
2019-02-24T12:27:07.069Z,13.47
2019-02-24T12:30:10.924Z,14.37
2019-02-24T12:33:14.812Z,13.67
2019-02-24T12:36:18.374Z,14.07
2019-02-24T12:39:22.382Z,13.43
2019-02-24T12:42:26.072Z,13.57
2019-02-24T12:45:29.993Z,12.80
2019-02-24T12:48:34.016Z,12.00
2019-02-24T12:51:37.653Z,18.67
2019-02-24T12:54:41.448Z,11.80
2019-02-24T12:57:45.578Z,11.17
2019-02-24T13:00:49.256Z,11.20
2019-02-24T13:03:52.815Z,10.43
2019-02-24T13:06:57.618Z,11.43
2019-02-24T13:10:01.343Z,10.57
2019-02-24T13:13:05.098Z,10.10
2019-02-24T13:16:08.741Z,9.53
2019-02-24T13:19:12.457Z,9.40
2019-02-24T13:22:16.594Z,9.03
2019-02-24T13:25:20.161Z,9.30
2019-02-24T13:28:23.798Z,8.63
2019-02-24T13:31:27.968Z,8.70
2019-02-24T13:34:31.868Z,8.37
2019-02-24T13:37:35.418Z,8.50
2019-02-24T13:40:39.661Z,8.60
2019-02-24T13:43:43.288Z,8.40
2019-02-24T13:46:47.319Z,8.00
2019-02-24T13:49:50.964Z,7.60
2019-02-24T13:52:54.545Z,7.73
2019-02-24T13:55:58.530Z,7.50
2019-02-24T13:59:02.933Z,7.47
2019-02-24T14:02:06.475Z,6.67
2019-02-24T14:05:10.080Z,7.20
2019-02-24T14:08:13.959Z,6.73
2019-02-24T14:11:17.502Z,6.20
2019-02-24T14:14:21.059Z,6.60
2019-02-24T14:17:24.886Z,6.50
2019-02-24T14:20:29.076Z,5.97
2019-02-24T14:23:32.603Z,6.17
2019-02-24T14:26:36.617Z,6.63
2019-02-24T14:29:40.167Z,6.30
2019-02-24T14:32:44.586Z,6.67
2019-02-24T14:35:48.207Z,6.10
2019-02-24T14:38:52.331Z,5.60
2019-02-24T14:41:55.892Z,5.57
2019-02-24T14:44:59.884Z,5.40
2019-02-24T14:48:03.781Z,6.07
2019-02-24T14:51:07.316Z,5.67
2019-02-24T14:54:10.928Z,5.53
2019-02-24T14:57:14.536Z,4.93
2019-02-24T15:00:18.126Z,5.17
2019-02-24T15:03:21.780Z,5.20
2019-02-24T15:06:25.325Z,5.20
2019-02-24T15:09:28.898Z,5.10
2019-02-24T15:12:32.441Z,5.40
2019-02-24T15:15:36.022Z,5.33
2019-02-24T15:18:39.572Z,5.23
2019-02-24T15:21:43.272Z,5.20
2019-02-24T15:24:46.809Z,5.00
2019-02-24T15:27:50.349Z,5.00
2019-02-24T15:30:54.148Z,5.10
2019-02-24T15:33:57.734Z,4.87
2019-02-24T15:37:01.276Z,4.73
2019-02-24T15:40:05.648Z,5.03
2019-02-24T15:43:09.224Z,5.30
2019-02-24T15:46:12.783Z,5.10
2019-02-24T15:49:16.921Z,4.60
2019-02-24T15:52:20.444Z,4.50
2019-02-24T15:55:24.318Z,4.30
2019-02-24T15:58:27.856Z,4.90
2019-02-24T16:01:31.649Z,4.67
2019-02-24T16:04:35.437Z,4.67
2019-02-24T16:07:39.050Z,4.70
2019-02-24T16:10:42.868Z,4.50
2019-02-24T16:13:46.480Z,4.40
2019-02-24T16:16:50.026Z,4.73
2019-02-24T16:19:53.621Z,4.23
2019-02-24T16:22:57.523Z,4.40
2019-02-24T16:26:01.047Z,4.33
2019-02-24T16:29:04.584Z,4.70
2019-02-24T16:32:08.466Z,4.80
2019-02-24T16:35:12.840Z,4.53
2019-02-24T16:38:16.753Z,4.00
2019-02-24T16:41:20.281Z,5.30
2019-02-24T16:44:24.537Z,5.77
2019-02-24T16:47:28.088Z,4.50
2019-02-24T16:50:31.625Z,5.03
2019-02-24T16:53:35.540Z,5.60
2019-02-24T16:56:39.335Z,4.67
2019-02-24T16:59:43.111Z,5.57
2019-02-24T17:02:46.660Z,5.57
2019-02-24T17:05:50.222Z,5.57
2019-02-24T17:09:01.286Z,5.30
2019-02-24T17:11:59.298Z,5.87
2019-02-24T17:15:03.720Z,5.30
2019-02-24T17:18:07.280Z,6.13
2019-02-24T17:21:11.141Z,5.83
2019-02-24T17:24:14.680Z,5.93
2019-02-24T17:27:18.488Z,5.70
2019-02-24T17:30:23.714Z,5.33
2019-02-24T17:33:30.070Z,5.60
2019-02-24T17:36:32.740Z,5.83
2019-02-24T17:39:36.573Z,5.27
2019-02-24T17:42:40.418Z,12.70
2019-02-24T17:45:44.947Z,5.83
2019-02-24T17:48:48.498Z,6.13
2019-02-24T17:51:52.426Z,6.33
2019-02-24T17:54:56.560Z,7.07
2019-02-24T17:58:00.088Z,6.57
2019-02-24T18:01:04.993Z,6.73
2019-02-24T18:04:08.660Z,7.60
2019-02-24T18:07:12.206Z,8.00
2019-02-24T18:10:15.923Z,6.90
2019-02-24T18:13:19.784Z,7.00
2019-02-24T18:16:23.625Z,6.90
2019-02-24T18:19:27.301Z,7.13
2019-02-24T18:22:31.229Z,6.60
2019-02-24T18:25:35.050Z,5.63
2019-02-24T18:28:38.827Z,5.83
2019-02-24T18:31:42.675Z,6.57
2019-02-24T18:34:46.222Z,6.97
2019-02-24T18:37:49.834Z,6.50
2019-02-24T18:40:53.444Z,5.90
2019-02-24T18:43:56.981Z,6.33
2019-02-24T18:47:00.536Z,6.57
2019-02-24T18:50:04.821Z,6.50
2019-02-24T18:53:08.436Z,6.77
2019-02-24T18:56:12.360Z,6.83
2019-02-24T18:59:15.913Z,6.67
2019-02-24T19:02:19.845Z,6.53
2019-02-24T19:05:23.734Z,6.90
2019-02-24T19:08:27.275Z,6.07
2019-02-24T19:11:30.818Z,6.47
2019-02-24T19:14:34.638Z,6.20
2019-02-24T19:17:38.189Z,6.77
2019-02-24T19:20:41.731Z,6.73
2019-02-24T19:23:45.306Z,6.80
2019-02-24T19:26:48.851Z,6.70
2019-02-24T19:29:52.389Z,6.13
2019-02-24T19:32:55.933Z,6.60
2019-02-24T19:35:59.520Z,6.30
2019-02-24T19:39:03.769Z,6.20
2019-02-24T19:42:07.601Z,6.50
2019-02-24T19:45:12.162Z,6.00
2019-02-24T19:48:15.813Z,6.10
2019-02-24T19:51:19.358Z,5.93
2019-02-24T19:54:22.950Z,6.27
2019-02-24T19:57:26.504Z,13.60
2019-02-24T20:00:30.034Z,15.23
2019-02-24T20:03:33.596Z,16.37
2019-02-24T20:06:37.789Z,16.83
2019-02-24T20:09:41.649Z,17.20
2019-02-24T20:12:45.201Z,16.67
2019-02-24T20:15:48.829Z,13.17
2019-02-24T20:18:52.646Z,12.73
2019-02-24T20:21:56.719Z,11.57
2019-02-24T20:25:00.303Z,10.70
2019-02-24T20:28:03.850Z,10.40
2019-02-24T20:31:07.720Z,10.20
2019-02-24T20:34:11.270Z,10.63
2019-02-24T20:37:14.821Z,9.83
2019-02-24T20:40:18.438Z,9.90
2019-02-24T20:43:22.244Z,9.97
2019-02-24T20:46:25.825Z,9.30
2019-02-24T20:49:29.370Z,9.10
2019-02-24T20:52:32.919Z,10.00
2019-02-24T20:55:36.749Z,8.87
2019-02-24T20:58:40.317Z,9.30
2019-02-24T21:01:43.848Z,8.47
2019-02-24T21:04:47.728Z,9.83
2019-02-24T21:07:51.268Z,8.80
2019-02-24T21:10:54.835Z,8.73
2019-02-24T21:13:58.755Z,9.07
2019-02-24T21:17:02.313Z,7.87
2019-02-24T21:20:07.910Z,8.20
2019-02-24T21:23:11.474Z,17.67
2019-02-24T21:26:15.011Z,19.50
2019-02-24T21:29:18.872Z,43.83
2019-02-24T21:32:22.719Z,20.17
2019-02-24T21:35:26.294Z,25.47
2019-02-24T21:38:29.848Z,24.80
2019-02-24T21:41:33.387Z,24.47
2019-02-24T21:44:36.929Z,23.83
2019-02-24T21:47:40.789Z,22.13
2019-02-24T21:50:44.339Z,20.57
2019-02-24T21:53:47.888Z,20.80
2019-02-24T21:56:51.432Z,20.77
2019-02-24T21:59:55.367Z,19.27
2019-02-24T22:02:58.889Z,20.13
2019-02-24T22:06:02.733Z,19.10
2019-02-24T22:09:08.694Z,18.80
2019-02-24T22:12:12.257Z,18.27
2019-02-24T22:15:17.189Z,17.73
2019-02-24T22:18:20.726Z,14.50
2019-02-24T22:21:24.565Z,14.97
2019-02-24T22:24:28.402Z,13.07
2019-02-24T22:27:31.947Z,12.53
2019-02-24T22:30:35.879Z,12.93
2019-02-24T22:33:39.423Z,12.03
2019-02-24T22:36:43.040Z,11.90
2019-02-24T22:39:46.592Z,11.57
2019-02-24T22:42:50.136Z,11.63
2019-02-24T22:45:53.678Z,11.23
2019-02-24T22:48:57.214Z,10.87
2019-02-24T22:52:01.138Z,11.30
2019-02-24T22:55:05.539Z,11.23
2019-02-24T22:58:09.076Z,11.20
2019-02-24T23:01:18.988Z,10.40
2019-02-24T23:04:22.610Z,10.60
2019-02-24T23:07:26.178Z,10.23
2019-02-24T23:10:29.724Z,9.90
2019-02-24T23:13:33.615Z,9.77
2019-02-24T23:16:37.154Z,10.60
2019-02-24T23:19:41.127Z,9.80
2019-02-24T23:22:44.694Z,10.07
2019-02-24T23:25:48.646Z,9.63
2019-02-24T23:28:52.420Z,9.33
2019-02-24T23:31:55.981Z,9.10
2019-02-24T23:34:59.840Z,9.47
2019-02-24T23:38:03.395Z,9.63
2019-02-24T23:41:07.266Z,9.30
2019-02-24T23:44:10.810Z,9.40
2019-02-24T23:47:14.654Z,9.00
2019-02-24T23:50:18.782Z,9.10
2019-02-24T23:53:22.434Z,8.60
2019-02-24T23:56:26.745Z,8.13
2019-02-24T23:59:30.558Z,8.17
